Flight Track Log - Related Links

Times and Time Zones

All times are in EDT time to prevent confusion due to time zone crossing. See the SKW4664 flight status page for this flight to view local times or setup timezone preferences in your user account.

Time Position Orientation Groundspeed Altitude Reporting Facility
EDT Latitude Longitude Course Direction KTS MPH feet Rate Location/Type
Fri 10:42:24 AM 44.9000 -93.2833 235° Southwest 172 198 2,700  Level Minneapolis TRACON
Fri 10:42:52 AM 44.8992 -93.3106 268° West 194 223 3,700 2,667 Climbing Minneapolis Center
Fri 10:43:54 AM 44.8906 -93.3939 262° West 217 250 6,700 2,274 Climbing Minneapolis Center
Fri 10:44:00 AM 44.6748 -93.6505 235° Southwest  Level FlightAware Approximate
Fri 10:44:56 AM 44.8689 -93.4892 252° West 268 308 8,400  Level Minneapolis Center
Fri 10:45:00 AM 44.6013 -93.7974 235° Southwest  Level FlightAware Approximate
Fri 10:45:58 AM 44.8036 -93.5861 227° Southwest 289 333 11,700  Level Minneapolis Center
Fri 10:46:00 AM 44.5178 -93.9315 230° Southwest  Level FlightAware Approximate
Fri 10:47:00 AM 44.4444 -94.0780 235° Southwest  Level FlightAware Approximate
Fri 10:47:01 AM 44.7625 -93.6881 240° Southwest 307 353 14,400  Level Minneapolis Center
Fri 10:48:03 AM 44.7231 -93.7939 242° Southwest 309 356 16,600 2,032 Climbing Minneapolis Center
Fri 10:49:05 AM 44.6828 -93.9028 243° Southwest 315 362 18,600 1,403 Climbing Minneapolis Center
Fri 10:50:07 AM 44.6400 -94.0183 243° Southwest 328 377 19,500 1,403 Climbing Minneapolis Center
Fri 10:51:09 AM 44.5850 -94.1664 242° Southwest 354 407 21,500 1,210 Climbing Minneapolis Center
Fri 10:52:11 AM 44.5375 -94.2925 242° Southwest 364 419 22,000 242 Climbing Minneapolis Center
Fri 10:53:13 AM 44.4911 -94.4197 243° Southwest 367 422 22,000  Level Minneapolis Center
Fri 10:54:15 AM 44.4442 -94.5456 242° Southwest 367 422 22,000  Level Minneapolis Center
Fri 10:55:17 AM 44.3922 -94.6806 242° Southwest 366 421 22,000  Level Minneapolis Center
Fri 10:56:19 AM 44.3456 -94.8056 242° Southwest 364 419 22,000  Level Minneapolis Center
Fri 10:57:22 AM 44.2994 -94.9292 243° Southwest 361 415 22,000  Level Minneapolis Center
Fri 10:58:23 AM 44.2511 -95.0539 242° Southwest 364 419 22,000  Level Minneapolis Center
Fri 10:59:25 AM 44.1939 -95.2008 242° Southwest 361 415 22,000  Level Minneapolis Center
Fri 11:00:28 AM 44.1458 -95.3250 242° Southwest 364 419 22,000  Level Minneapolis Center
Fri 11:01:30 AM 44.0978 -95.4481 241° Southwest 363 418 22,000  Level Minneapolis Center
Fri 11:02:32 AM 44.0494 -95.5711 241° Southwest 362 417 22,000  Level Minneapolis Center
Fri 11:03:34 AM 44.0014 -95.6944 242° Southwest 362 417 22,000 -484 Level Minneapolis Center
Fri 11:04:36 AM 43.9522 -95.8172 241° Southwest 363 418 21,000 -2,419 Descending Minneapolis Center
Fri 11:05:38 AM 43.9028 -95.9450 242° Southwest 371 427 17,000 -4,210 Descending Minneapolis Center
Fri 11:06:40 AM 43.8411 -96.1019 241° Southwest 381 438 12,300 -3,024 Descending Minneapolis Center
Fri 11:07:43 AM 43.8058 -96.2278 249° West 362 417 10,700 -1,584 Descending Minneapolis Center
Fri 11:08:45 AM 43.7761 -96.3311 248° West 321 369 9,000 -1,790 Descending Minneapolis Center
Fri 11:09:47 AM 43.7486 -96.4303 249° West 296 341 7,000 -1,984 Descending Minneapolis Center
Fri 11:10:49 AM 43.7222 -96.5272 249° West 282 325 4,900 -1,935 Descending Minneapolis Center
Fri 11:11:51 AM 43.6964 -96.6197 249° West 271 312 3,000 -1,839 Descending Minneapolis Center

Login

Don't have an account? Register now (free) for customized features, flight alerts, and more!